sensor_id;sensor_type;location;lat;lon;timestamp;P1;durP1;ratioP1;P2;durP2;ratioP2
4486;SDS011;2256;48.740;9.106;2023-11-19T00:00:26;1.67;;;1.57;;
4486;SDS011;2256;48.740;9.106;2023-11-19T00:02:53;7.20;;;2.33;;
4486;SDS011;2256;48.740;9.106;2023-11-19T00:05:20;3.10;;;2.07;;
4486;SDS011;2256;48.740;9.106;2023-11-19T00:07:47;3.97;;;1.40;;
4486;SDS011;2256;48.740;9.106;2023-11-19T00:10:14;2.10;;;1.90;;
4486;SDS011;2256;48.740;9.106;2023-11-19T00:12:45;5.13;;;1.67;;
4486;SDS011;2256;48.740;9.106;2023-11-19T00:15:14;2.37;;;1.70;;
4486;SDS011;2256;48.740;9.106;2023-11-19T00:17:44;3.40;;;1.70;;
4486;SDS011;2256;48.740;9.106;2023-11-19T00:20:12;3.93;;;2.37;;
4486;SDS011;2256;48.740;9.106;2023-11-19T00:22:40;3.30;;;1.80;;
4486;SDS011;2256;48.740;9.106;2023-11-19T00:25:08;24.60;;;1.83;;
4486;SDS011;2256;48.740;9.106;2023-11-19T00:27:35;3.00;;;1.60;;
4486;SDS011;2256;48.740;9.106;2023-11-19T00:30:02;2.30;;;1.80;;
4486;SDS011;2256;48.740;9.106;2023-11-19T00:32:31;1.67;;;1.33;;
4486;SDS011;2256;48.740;9.106;2023-11-19T00:34:58;2.13;;;1.50;;
4486;SDS011;2256;48.740;9.106;2023-11-19T00:37:25;2.60;;;1.70;;
4486;SDS011;2256;48.740;9.106;2023-11-19T00:39:52;2.20;;;1.50;;
4486;SDS011;2256;48.740;9.106;2023-11-19T00:42:18;2.83;;;1.67;;
4486;SDS011;2256;48.740;9.106;2023-11-19T00:44:45;2.00;;;1.40;;
4486;SDS011;2256;48.740;9.106;2023-11-19T00:47:12;2.53;;;1.60;;
4486;SDS011;2256;48.740;9.106;2023-11-19T00:49:40;2.20;;;1.87;;
4486;SDS011;2256;48.740;9.106;2023-11-19T00:52:08;1.77;;;1.57;;
4486;SDS011;2256;48.740;9.106;2023-11-19T00:54:39;6.70;;;1.93;;
4486;SDS011;2256;48.740;9.106;2023-11-19T00:57:06;1.97;;;1.40;;
4486;SDS011;2256;48.740;9.106;2023-11-19T00:59:33;3.27;;;1.77;;
4486;SDS011;2256;48.740;9.106;2023-11-19T01:02:00;1.60;;;1.40;;
4486;SDS011;2256;48.740;9.106;2023-11-19T01:04:28;2.00;;;1.20;;
4486;SDS011;2256;48.740;9.106;2023-11-19T01:06:56;1.17;;;1.07;;
4486;SDS011;2256;48.740;9.106;2023-11-19T01:09:23;3.40;;;1.57;;
4486;SDS011;2256;48.740;9.106;2023-11-19T01:11:51;5.83;;;1.30;;
4486;SDS011;2256;48.740;9.106;2023-11-19T01:14:19;2.10;;;1.37;;
4486;SDS011;2256;48.740;9.106;2023-11-19T01:16:46;3.23;;;1.10;;
4486;SDS011;2256;48.740;9.106;2023-11-19T01:19:13;1.20;;;1.00;;
4486;SDS011;2256;48.740;9.106;2023-11-19T01:21:40;2.10;;;1.10;;
4486;SDS011;2256;48.740;9.106;2023-11-19T01:24:09;5.07;;;1.00;;
4486;SDS011;2256;48.740;9.106;2023-11-19T01:26:38;2.90;;;1.10;;
4486;SDS011;2256;48.740;9.106;2023-11-19T01:29:10;1.83;;;1.17;;
4486;SDS011;2256;48.740;9.106;2023-11-19T01:31:38;1.57;;;1.10;;
4486;SDS011;2256;48.740;9.106;2023-11-19T01:34:05;1.30;;;1.10;;
4486;SDS011;2256;48.740;9.106;2023-11-19T01:36:32;1.33;;;1.00;;
4486;SDS011;2256;48.740;9.106;2023-11-19T01:38:59;0.90;;;0.80;;
4486;SDS011;2256;48.740;9.106;2023-11-19T01:41:28;1.27;;;1.00;;
4486;SDS011;2256;48.740;9.106;2023-11-19T01:43:54;1.83;;;1.03;;
4486;SDS011;2256;48.740;9.106;2023-11-19T01:46:21;1.00;;;0.77;;
4486;SDS011;2256;48.740;9.106;2023-11-19T01:48:49;1.00;;;0.80;;
4486;SDS011;2256;48.740;9.106;2023-11-19T01:51:16;1.80;;;1.30;;
4486;SDS011;2256;48.740;9.106;2023-11-19T01:53:43;1.30;;;1.05;;
4486;SDS011;2256;48.740;9.106;2023-11-19T01:56:11;0.93;;;0.80;;
4486;SDS011;2256;48.740;9.106;2023-11-19T01:58:42;1.00;;;0.90;;
4486;SDS011;2256;48.740;9.106;2023-11-19T02:01:10;4.40;;;1.80;;
4486;SDS011;2256;48.740;9.106;2023-11-19T02:03:37;0.97;;;0.80;;
4486;SDS011;2256;48.740;9.106;2023-11-19T02:06:05;1.67;;;0.80;;
4486;SDS011;2256;48.740;9.106;2023-11-19T02:08:35;1.53;;;0.87;;
4486;SDS011;2256;48.740;9.106;2023-11-19T02:11:02;1.00;;;0.90;;
4486;SDS011;2256;48.740;9.106;2023-11-19T02:13:29;1.03;;;0.90;;
4486;SDS011;2256;48.740;9.106;2023-11-19T02:15:57;1.47;;;1.00;;
4486;SDS011;2256;48.740;9.106;2023-11-19T02:18:25;1.00;;;0.90;;
4486;SDS011;2256;48.740;9.106;2023-11-19T02:20:53;0.97;;;0.80;;
4486;SDS011;2256;48.740;9.106;2023-11-19T02:23:20;1.30;;;1.00;;
4486;SDS011;2256;48.740;9.106;2023-11-19T02:25:49;1.17;;;0.90;;
4486;SDS011;2256;48.740;9.106;2023-11-19T02:28:25;1.13;;;0.83;;
4486;SDS011;2256;48.740;9.106;2023-11-19T02:30:52;0.83;;;0.83;;
4486;SDS011;2256;48.740;9.106;2023-11-19T02:33:19;1.10;;;0.90;;
4486;SDS011;2256;48.740;9.106;2023-11-19T02:35:46;1.37;;;0.90;;
4486;SDS011;2256;48.740;9.106;2023-11-19T02:38:12;1.00;;;0.90;;
4486;SDS011;2256;48.740;9.106;2023-11-19T02:40:42;2.70;;;0.97;;
4486;SDS011;2256;48.740;9.106;2023-11-19T02:43:09;0.80;;;0.80;;
4486;SDS011;2256;48.740;9.106;2023-11-19T02:45:37;1.30;;;0.87;;
4486;SDS011;2256;48.740;9.106;2023-11-19T02:48:04;10.30;;;1.37;;
4486;SDS011;2256;48.740;9.106;2023-11-19T02:50:32;2.03;;;1.00;;
4486;SDS011;2256;48.740;9.106;2023-11-19T02:52:59;1.17;;;0.97;;
4486;SDS011;2256;48.740;9.106;2023-11-19T02:55:26;0.90;;;0.80;;
4486;SDS011;2256;48.740;9.106;2023-11-19T02:57:56;0.93;;;0.90;;
4486;SDS011;2256;48.740;9.106;2023-11-19T03:00:24;0.90;;;0.80;;
4486;SDS011;2256;48.740;9.106;2023-11-19T03:02:58;1.57;;;1.00;;
4486;SDS011;2256;48.740;9.106;2023-11-19T03:05:30;0.83;;;0.80;;
4486;SDS011;2256;48.740;9.106;2023-11-19T03:07:57;0.80;;;0.73;;
4486;SDS011;2256;48.740;9.106;2023-11-19T03:10:24;1.00;;;0.90;;
4486;SDS011;2256;48.740;9.106;2023-11-19T03:12:51;1.00;;;0.80;;
4486;SDS011;2256;48.740;9.106;2023-11-19T03:15:17;0.90;;;0.70;;
4486;SDS011;2256;48.740;9.106;2023-11-19T03:17:46;1.10;;;0.90;;
4486;SDS011;2256;48.740;9.106;2023-11-19T03:20:14;0.70;;;0.70;;
4486;SDS011;2256;48.740;9.106;2023-11-19T03:22:42;1.00;;;0.90;;
4486;SDS011;2256;48.740;9.106;2023-11-19T03:25:09;0.77;;;0.77;;
4486;SDS011;2256;48.740;9.106;2023-11-19T03:27:36;0.80;;;0.80;;
4486;SDS011;2256;48.740;9.106;2023-11-19T03:30:04;0.70;;;0.70;;
4486;SDS011;2256;48.740;9.106;2023-11-19T03:32:31;2.60;;;1.00;;
4486;SDS011;2256;48.740;9.106;2023-11-19T03:35:00;0.70;;;0.70;;
4486;SDS011;2256;48.740;9.106;2023-11-19T03:37:30;1.57;;;0.80;;
4486;SDS011;2256;48.740;9.106;2023-11-19T03:39:57;0.70;;;0.70;;
4486;SDS011;2256;48.740;9.106;2023-11-19T03:42:25;1.37;;;0.97;;
4486;SDS011;2256;48.740;9.106;2023-11-19T03:44:51;0.80;;;0.80;;
4486;SDS011;2256;48.740;9.106;2023-11-19T03:47:18;0.90;;;0.80;;
4486;SDS011;2256;48.740;9.106;2023-11-19T03:49:47;1.47;;;0.80;;
4486;SDS011;2256;48.740;9.106;2023-11-19T03:52:14;1.50;;;0.87;;
4486;SDS011;2256;48.740;9.106;2023-11-19T03:54:42;0.90;;;0.80;;
4486;SDS011;2256;48.740;9.106;2023-11-19T03:57:10;1.43;;;0.83;;
4486;SDS011;2256;48.740;9.106;2023-11-19T03:59:37;1.00;;;0.90;;
4486;SDS011;2256;48.740;9.106;2023-11-19T04:02:04;0.80;;;0.80;;
4486;SDS011;2256;48.740;9.106;2023-11-19T04:04:31;0.70;;;0.60;;
4486;SDS011;2256;48.740;9.106;2023-11-19T04:06:58;1.00;;;0.80;;
4486;SDS011;2256;48.740;9.106;2023-11-19T04:09:25;0.90;;;0.80;;
4486;SDS011;2256;48.740;9.106;2023-11-19T04:11:54;1.20;;;0.90;;
4486;SDS011;2256;48.740;9.106;2023-11-19T04:14:20;1.00;;;0.90;;
4486;SDS011;2256;48.740;9.106;2023-11-19T04:16:47;0.80;;;0.80;;
4486;SDS011;2256;48.740;9.106;2023-11-19T04:19:14;1.10;;;0.80;;
4486;SDS011;2256;48.740;9.106;2023-11-19T04:21:41;1.63;;;0.90;;
4486;SDS011;2256;48.740;9.106;2023-11-19T04:24:08;0.90;;;0.80;;
4486;SDS011;2256;48.740;9.106;2023-11-19T04:26:39;0.70;;;0.70;;
4486;SDS011;2256;48.740;9.106;2023-11-19T04:29:08;0.97;;;0.80;;
4486;SDS011;2256;48.740;9.106;2023-11-19T04:31:36;0.90;;;0.70;;
4486;SDS011;2256;48.740;9.106;2023-11-19T04:34:03;1.07;;;0.80;;
4486;SDS011;2256;48.740;9.106;2023-11-19T04:36:30;0.73;;;0.73;;
4486;SDS011;2256;48.740;9.106;2023-11-19T04:38:56;0.70;;;0.70;;
4486;SDS011;2256;48.740;9.106;2023-11-19T04:41:24;0.70;;;0.70;;
4486;SDS011;2256;48.740;9.106;2023-11-19T04:43:52;0.80;;;0.80;;
4486;SDS011;2256;48.740;9.106;2023-11-19T04:46:20;1.00;;;0.80;;
4486;SDS011;2256;48.740;9.106;2023-11-19T04:48:48;1.00;;;0.70;;
4486;SDS011;2256;48.740;9.106;2023-11-19T04:51:15;1.20;;;1.10;;
4486;SDS011;2256;48.740;9.106;2023-11-19T04:53:42;0.70;;;0.70;;
4486;SDS011;2256;48.740;9.106;2023-11-19T04:56:09;2.00;;;0.80;;
4486;SDS011;2256;48.740;9.106;2023-11-19T04:58:36;0.80;;;0.73;;
4486;SDS011;2256;48.740;9.106;2023-11-19T05:01:03;0.80;;;0.70;;
4486;SDS011;2256;48.740;9.106;2023-11-19T05:03:32;2.93;;;0.80;;
4486;SDS011;2256;48.740;9.106;2023-11-19T05:05:59;0.83;;;0.80;;
4486;SDS011;2256;48.740;9.106;2023-11-19T05:08:26;0.80;;;0.70;;
4486;SDS011;2256;48.740;9.106;2023-11-19T05:10:53;0.80;;;0.70;;
4486;SDS011;2256;48.740;9.106;2023-11-19T05:13:19;0.80;;;0.70;;
4486;SDS011;2256;48.740;9.106;2023-11-19T05:15:47;0.90;;;0.80;;
4486;SDS011;2256;48.740;9.106;2023-11-19T05:18:13;0.80;;;0.80;;
4486;SDS011;2256;48.740;9.106;2023-11-19T05:20:42;0.80;;;0.70;;
4486;SDS011;2256;48.740;9.106;2023-11-19T05:23:08;2.37;;;0.77;;
4486;SDS011;2256;48.740;9.106;2023-11-19T05:25:36;0.70;;;0.70;;
4486;SDS011;2256;48.740;9.106;2023-11-19T05:28:03;2.93;;;0.90;;
4486;SDS011;2256;48.740;9.106;2023-11-19T05:30:30;0.90;;;0.70;;
4486;SDS011;2256;48.740;9.106;2023-11-19T05:32:56;0.80;;;0.70;;
4486;SDS011;2256;48.740;9.106;2023-11-19T05:35:23;0.80;;;0.70;;
4486;SDS011;2256;48.740;9.106;2023-11-19T05:37:51;1.03;;;0.87;;
4486;SDS011;2256;48.740;9.106;2023-11-19T05:40:18;0.83;;;0.67;;
4486;SDS011;2256;48.740;9.106;2023-11-19T05:42:45;0.80;;;0.70;;
4486;SDS011;2256;48.740;9.106;2023-11-19T05:45:12;1.23;;;0.83;;
4486;SDS011;2256;48.740;9.106;2023-11-19T05:47:39;0.80;;;0.80;;
4486;SDS011;2256;48.740;9.106;2023-11-19T05:50:06;0.80;;;0.80;;
4486;SDS011;2256;48.740;9.106;2023-11-19T05:52:34;1.10;;;0.90;;
4486;SDS011;2256;48.740;9.106;2023-11-19T05:55:02;1.10;;;0.83;;
4486;SDS011;2256;48.740;9.106;2023-11-19T05:57:34;0.80;;;0.70;;
4486;SDS011;2256;48.740;9.106;2023-11-19T06:00:01;0.70;;;0.70;;
4486;SDS011;2256;48.740;9.106;2023-11-19T06:02:32;0.80;;;0.70;;
4486;SDS011;2256;48.740;9.106;2023-11-19T06:04:59;1.00;;;0.90;;
4486;SDS011;2256;48.740;9.106;2023-11-19T06:07:25;0.80;;;0.77;;
4486;SDS011;2256;48.740;9.106;2023-11-19T06:09:52;0.90;;;0.80;;
4486;SDS011;2256;48.740;9.106;2023-11-19T06:12:20;1.00;;;0.70;;
4486;SDS011;2256;48.740;9.106;2023-11-19T06:14:47;1.40;;;0.80;;
4486;SDS011;2256;48.740;9.106;2023-11-19T06:17:14;0.80;;;0.70;;
4486;SDS011;2256;48.740;9.106;2023-11-19T06:19:41;1.00;;;0.90;;
4486;SDS011;2256;48.740;9.106;2023-11-19T06:22:08;1.00;;;0.90;;
4486;SDS011;2256;48.740;9.106;2023-11-19T06:24:34;0.70;;;0.70;;
4486;SDS011;2256;48.740;9.106;2023-11-19T06:27:01;1.17;;;0.70;;
4486;SDS011;2256;48.740;9.106;2023-11-19T06:29:31;0.80;;;0.77;;
4486;SDS011;2256;48.740;9.106;2023-11-19T06:31:57;1.53;;;0.80;;
4486;SDS011;2256;48.740;9.106;2023-11-19T06:34:24;0.70;;;0.63;;
4486;SDS011;2256;48.740;9.106;2023-11-19T06:36:51;0.90;;;0.70;;
4486;SDS011;2256;48.740;9.106;2023-11-19T06:39:18;1.70;;;0.90;;
4486;SDS011;2256;48.740;9.106;2023-11-19T06:41:45;0.87;;;0.77;;
4486;SDS011;2256;48.740;9.106;2023-11-19T06:44:12;0.80;;;0.70;;
4486;SDS011;2256;48.740;9.106;2023-11-19T06:46:40;0.80;;;0.70;;
4486;SDS011;2256;48.740;9.106;2023-11-19T06:49:07;1.20;;;0.90;;
4486;SDS011;2256;48.740;9.106;2023-11-19T06:51:34;0.90;;;0.70;;
4486;SDS011;2256;48.740;9.106;2023-11-19T06:54:00;2.57;;;1.00;;
4486;SDS011;2256;48.740;9.106;2023-11-19T06:56:27;1.10;;;0.90;;
4486;SDS011;2256;48.740;9.106;2023-11-19T06:58:54;6.33;;;0.80;;
4486;SDS011;2256;48.740;9.106;2023-11-19T07:01:21;5.90;;;0.90;;
4486;SDS011;2256;48.740;9.106;2023-11-19T07:03:49;0.97;;;0.83;;
4486;SDS011;2256;48.740;9.106;2023-11-19T07:06:16;0.80;;;0.70;;
4486;SDS011;2256;48.740;9.106;2023-11-19T07:08:43;0.80;;;0.80;;
4486;SDS011;2256;48.740;9.106;2023-11-19T07:11:10;0.93;;;0.77;;
4486;SDS011;2256;48.740;9.106;2023-11-19T07:13:39;1.27;;;0.90;;
4486;SDS011;2256;48.740;9.106;2023-11-19T07:16:06;2.40;;;1.07;;
4486;SDS011;2256;48.740;9.106;2023-11-19T07:18:35;1.00;;;0.90;;
4486;SDS011;2256;48.740;9.106;2023-11-19T07:21:03;1.50;;;1.07;;
4486;SDS011;2256;48.740;9.106;2023-11-19T07:23:30;2.53;;;1.27;;
4486;SDS011;2256;48.740;9.106;2023-11-19T07:25:58;5.47;;;1.30;;
4486;SDS011;2256;48.740;9.106;2023-11-19T07:28:24;2.03;;;1.07;;
4486;SDS011;2256;48.740;9.106;2023-11-19T07:30:53;2.17;;;1.20;;
4486;SDS011;2256;48.740;9.106;2023-11-19T07:33:21;1.77;;;1.07;;
4486;SDS011;2256;48.740;9.106;2023-11-19T07:35:48;1.47;;;0.90;;
4486;SDS011;2256;48.740;9.106;2023-11-19T07:38:17;1.13;;;0.90;;
4486;SDS011;2256;48.740;9.106;2023-11-19T07:40:44;1.13;;;0.90;;
4486;SDS011;2256;48.740;9.106;2023-11-19T07:43:11;3.20;;;1.03;;
4486;SDS011;2256;48.740;9.106;2023-11-19T07:45:38;1.20;;;0.80;;
4486;SDS011;2256;48.740;9.106;2023-11-19T07:48:04;1.10;;;0.90;;
4486;SDS011;2256;48.740;9.106;2023-11-19T07:50:31;5.30;;;0.90;;
4486;SDS011;2256;48.740;9.106;2023-11-19T07:52:58;0.83;;;0.77;;
4486;SDS011;2256;48.740;9.106;2023-11-19T07:55:26;2.17;;;0.83;;
4486;SDS011;2256;48.740;9.106;2023-11-19T07:57:53;1.00;;;0.87;;
4486;SDS011;2256;48.740;9.106;2023-11-19T08:00:20;1.00;;;0.90;;
4486;SDS011;2256;48.740;9.106;2023-11-19T08:02:47;1.17;;;0.70;;
4486;SDS011;2256;48.740;9.106;2023-11-19T08:05:14;1.50;;;0.83;;
4486;SDS011;2256;48.740;9.106;2023-11-19T08:07:41;0.90;;;0.80;;
4486;SDS011;2256;48.740;9.106;2023-11-19T08:10:08;0.83;;;0.73;;
4486;SDS011;2256;48.740;9.106;2023-11-19T08:12:37;1.00;;;0.90;;
4486;SDS011;2256;48.740;9.106;2023-11-19T08:15:04;2.57;;;0.90;;
4486;SDS011;2256;48.740;9.106;2023-11-19T08:17:32;5.60;;;1.07;;
4486;SDS011;2256;48.740;9.106;2023-11-19T08:19:58;1.20;;;1.00;;
4486;SDS011;2256;48.740;9.106;2023-11-19T08:22:26;1.53;;;1.00;;
4486;SDS011;2256;48.740;9.106;2023-11-19T08:24:53;10.93;;;1.07;;
4486;SDS011;2256;48.740;9.106;2023-11-19T08:27:19;1.17;;;0.77;;
4486;SDS011;2256;48.740;9.106;2023-11-19T08:29:53;1.97;;;0.90;;
4486;SDS011;2256;48.740;9.106;2023-11-19T08:32:22;3.00;;;0.87;;
4486;SDS011;2256;48.740;9.106;2023-11-19T08:34:48;1.50;;;0.93;;
4486;SDS011;2256;48.740;9.106;2023-11-19T08:37:15;3.13;;;0.80;;
4486;SDS011;2256;48.740;9.106;2023-11-19T08:39:43;4.30;;;2.00;;
4486;SDS011;2256;48.740;9.106;2023-11-19T08:42:10;0.90;;;0.80;;
4486;SDS011;2256;48.740;9.106;2023-11-19T08:44:36;0.83;;;0.80;;
4486;SDS011;2256;48.740;9.106;2023-11-19T08:47:05;0.90;;;0.70;;
4486;SDS011;2256;48.740;9.106;2023-11-19T08:49:32;4.30;;;1.00;;
4486;SDS011;2256;48.740;9.106;2023-11-19T08:51:59;1.40;;;0.93;;
4486;SDS011;2256;48.740;9.106;2023-11-19T08:54:25;2.13;;;0.80;;
4486;SDS011;2256;48.740;9.106;2023-11-19T08:56:52;0.80;;;0.80;;
4486;SDS011;2256;48.740;9.106;2023-11-19T08:59:19;1.00;;;0.80;;
4486;SDS011;2256;48.740;9.106;2023-11-19T09:01:46;4.03;;;1.00;;
4486;SDS011;2256;48.740;9.106;2023-11-19T09:04:14;1.53;;;1.00;;
4486;SDS011;2256;48.740;9.106;2023-11-19T09:06:41;0.87;;;0.87;;
4486;SDS011;2256;48.740;9.106;2023-11-19T09:09:09;0.80;;;0.80;;
4486;SDS011;2256;48.740;9.106;2023-11-19T09:11:35;0.80;;;0.73;;
4486;SDS011;2256;48.740;9.106;2023-11-19T09:14:03;2.43;;;0.80;;
4486;SDS011;2256;48.740;9.106;2023-11-19T09:16:30;1.07;;;0.83;;
4486;SDS011;2256;48.740;9.106;2023-11-19T09:18:57;0.93;;;0.80;;
4486;SDS011;2256;48.740;9.106;2023-11-19T09:21:25;0.97;;;0.83;;
4486;SDS011;2256;48.740;9.106;2023-11-19T09:23:52;1.43;;;0.90;;
4486;SDS011;2256;48.740;9.106;2023-11-19T09:26:19;1.07;;;0.80;;
4486;SDS011;2256;48.740;9.106;2023-11-19T09:28:46;1.43;;;1.00;;
4486;SDS011;2256;48.740;9.106;2023-11-19T09:31:13;4.50;;;1.13;;
4486;SDS011;2256;48.740;9.106;2023-11-19T09:33:40;1.47;;;1.00;;
4486;SDS011;2256;48.740;9.106;2023-11-19T09:36:07;0.97;;;0.97;;
4486;SDS011;2256;48.740;9.106;2023-11-19T09:38:37;1.73;;;1.10;;
4486;SDS011;2256;48.740;9.106;2023-11-19T09:41:04;1.93;;;1.00;;
4486;SDS011;2256;48.740;9.106;2023-11-19T09:43:33;1.17;;;1.07;;
4486;SDS011;2256;48.740;9.106;2023-11-19T09:46:01;1.20;;;0.80;;
4486;SDS011;2256;48.740;9.106;2023-11-19T09:48:32;5.73;;;1.10;;
4486;SDS011;2256;48.740;9.106;2023-11-19T09:50:59;0.83;;;0.70;;
4486;SDS011;2256;48.740;9.106;2023-11-19T09:53:26;1.37;;;1.00;;
4486;SDS011;2256;48.740;9.106;2023-11-19T09:55:55;1.23;;;0.97;;
4486;SDS011;2256;48.740;9.106;2023-11-19T09:58:22;1.33;;;1.00;;
4486;SDS011;2256;48.740;9.106;2023-11-19T10:00:49;1.47;;;1.10;;
4486;SDS011;2256;48.740;9.106;2023-11-19T10:03:18;1.10;;;0.90;;
4486;SDS011;2256;48.740;9.106;2023-11-19T10:05:45;1.50;;;0.80;;
4486;SDS011;2256;48.740;9.106;2023-11-19T10:08:11;1.50;;;1.00;;
4486;SDS011;2256;48.740;9.106;2023-11-19T10:10:39;1.00;;;0.83;;
4486;SDS011;2256;48.740;9.106;2023-11-19T10:13:07;2.30;;;1.00;;
4486;SDS011;2256;48.740;9.106;2023-11-19T10:15:35;2.03;;;0.90;;
4486;SDS011;2256;48.740;9.106;2023-11-19T10:18:02;2.07;;;0.93;;
4486;SDS011;2256;48.740;9.106;2023-11-19T10:20:34;1.77;;;1.17;;
4486;SDS011;2256;48.740;9.106;2023-11-19T10:23:01;1.90;;;0.97;;
4486;SDS011;2256;48.740;9.106;2023-11-19T10:25:28;2.97;;;1.10;;
4486;SDS011;2256;48.740;9.106;2023-11-19T10:27:56;1.87;;;1.00;;
4486;SDS011;2256;48.740;9.106;2023-11-19T10:30:25;1.63;;;1.00;;
4486;SDS011;2256;48.740;9.106;2023-11-19T10:33:02;1.80;;;1.10;;
4486;SDS011;2256;48.740;9.106;2023-11-19T10:35:30;1.47;;;1.10;;
4486;SDS011;2256;48.740;9.106;2023-11-19T10:37:58;1.27;;;0.93;;
4486;SDS011;2256;48.740;9.106;2023-11-19T10:40:37;2.27;;;0.80;;
4486;SDS011;2256;48.740;9.106;2023-11-19T10:43:04;1.50;;;0.90;;
4486;SDS011;2256;48.740;9.106;2023-11-19T10:45:34;2.13;;;1.10;;
4486;SDS011;2256;48.740;9.106;2023-11-19T10:48:01;2.70;;;0.93;;
4486;SDS011;2256;48.740;9.106;2023-11-19T10:50:31;1.53;;;0.80;;
4486;SDS011;2256;48.740;9.106;2023-11-19T10:52:59;1.63;;;0.90;;
4486;SDS011;2256;48.740;9.106;2023-11-19T10:55:27;1.00;;;0.90;;
4486;SDS011;2256;48.740;9.106;2023-11-19T10:57:58;0.93;;;0.83;;
4486;SDS011;2256;48.740;9.106;2023-11-19T11:00:28;2.00;;;0.90;;
4486;SDS011;2256;48.740;9.106;2023-11-19T11:03:01;0.90;;;0.70;;
4486;SDS011;2256;48.740;9.106;2023-11-19T11:05:32;1.07;;;0.77;;
4486;SDS011;2256;48.740;9.106;2023-11-19T11:08:00;1.20;;;0.97;;
4486;SDS011;2256;48.740;9.106;2023-11-19T11:10:27;4.50;;;0.80;;
4486;SDS011;2256;48.740;9.106;2023-11-19T11:12:59;2.37;;;1.00;;
4486;SDS011;2256;48.740;9.106;2023-11-19T11:15:29;2.03;;;0.90;;
4486;SDS011;2256;48.740;9.106;2023-11-19T11:17:58;1.77;;;1.00;;
4486;SDS011;2256;48.740;9.106;2023-11-19T11:20:28;1.80;;;0.90;;
4486;SDS011;2256;48.740;9.106;2023-11-19T11:23:01;2.53;;;1.03;;
4486;SDS011;2256;48.740;9.106;2023-11-19T11:25:51;2.17;;;1.20;;
4486;SDS011;2256;48.740;9.106;2023-11-19T11:28:29;1.20;;;0.70;;
4486;SDS011;2256;48.740;9.106;2023-11-19T11:31:16;1.70;;;0.93;;
4486;SDS011;2256;48.740;9.106;2023-11-19T11:34:03;4.70;;;1.00;;
4486;SDS011;2256;48.740;9.106;2023-11-19T11:36:55;4.90;;;1.10;;
4486;SDS011;2256;48.740;9.106;2023-11-19T11:39:29;4.03;;;1.10;;
4486;SDS011;2256;48.740;9.106;2023-11-19T11:45:00;2.10;;;1.00;;
4486;SDS011;2256;48.740;9.106;2023-11-19T11:50:35;2.20;;;1.10;;
4486;SDS011;2256;48.740;9.106;2023-11-19T11:53:13;3.10;;;1.10;;
4486;SDS011;2256;48.740;9.106;2023-11-19T11:55:52;3.00;;;1.10;;
4486;SDS011;2256;48.740;9.106;2023-11-19T11:58:29;1.97;;;0.93;;
4486;SDS011;2256;48.740;9.106;2023-11-19T12:00:58;1.50;;;0.90;;
4486;SDS011;2256;48.740;9.106;2023-11-19T12:03:27;2.30;;;0.97;;
4486;SDS011;2256;48.740;9.106;2023-11-19T12:05:57;2.13;;;0.90;;
4486;SDS011;2256;48.740;9.106;2023-11-19T12:08:25;1.30;;;0.90;;
4486;SDS011;2256;48.740;9.106;2023-11-19T12:10:53;1.57;;;1.40;;
4486;SDS011;2256;48.740;9.106;2023-11-19T12:13:23;3.10;;;0.90;;
4486;SDS011;2256;48.740;9.106;2023-11-19T12:16:09;3.20;;;1.00;;
4486;SDS011;2256;48.740;9.106;2023-11-19T12:18:38;2.47;;;1.13;;
4486;SDS011;2256;48.740;9.106;2023-11-19T12:21:07;5.53;;;1.03;;
4486;SDS011;2256;48.740;9.106;2023-11-19T12:23:35;6.20;;;1.17;;
4486;SDS011;2256;48.740;9.106;2023-11-19T12:26:20;1.20;;;0.90;;
4486;SDS011;2256;48.740;9.106;2023-11-19T12:28:57;1.77;;;0.83;;
4486;SDS011;2256;48.740;9.106;2023-11-19T12:31:24;1.00;;;0.90;;
4486;SDS011;2256;48.740;9.106;2023-11-19T12:33:51;1.13;;;0.80;;
4486;SDS011;2256;48.740;9.106;2023-11-19T12:36:19;1.10;;;0.83;;
4486;SDS011;2256;48.740;9.106;2023-11-19T12:38:46;1.43;;;0.90;;
4486;SDS011;2256;48.740;9.106;2023-11-19T12:41:13;1.37;;;0.83;;
4486;SDS011;2256;48.740;9.106;2023-11-19T12:43:43;6.13;;;1.20;;
4486;SDS011;2256;48.740;9.106;2023-11-19T12:46:19;0.90;;;0.80;;
4486;SDS011;2256;48.740;9.106;2023-11-19T12:48:47;2.40;;;1.00;;
4486;SDS011;2256;48.740;9.106;2023-11-19T12:51:14;2.10;;;0.90;;
4486;SDS011;2256;48.740;9.106;2023-11-19T12:53:48;1.50;;;1.00;;
4486;SDS011;2256;48.740;9.106;2023-11-19T12:56:19;1.77;;;0.70;;
4486;SDS011;2256;48.740;9.106;2023-11-19T12:58:46;2.47;;;1.20;;
4486;SDS011;2256;48.740;9.106;2023-11-19T13:01:15;4.33;;;0.90;;
4486;SDS011;2256;48.740;9.106;2023-11-19T13:03:44;1.80;;;0.93;;
4486;SDS011;2256;48.740;9.106;2023-11-19T13:06:12;1.60;;;0.87;;
4486;SDS011;2256;48.740;9.106;2023-11-19T13:08:41;1.30;;;0.90;;
4486;SDS011;2256;48.740;9.106;2023-11-19T13:11:10;3.53;;;1.13;;
4486;SDS011;2256;48.740;9.106;2023-11-19T13:13:54;2.53;;;1.03;;
4486;SDS011;2256;48.740;9.106;2023-11-19T13:16:22;1.20;;;0.90;;
4486;SDS011;2256;48.740;9.106;2023-11-19T13:18:48;1.30;;;0.90;;
4486;SDS011;2256;48.740;9.106;2023-11-19T13:21:16;2.27;;;1.00;;
4486;SDS011;2256;48.740;9.106;2023-11-19T13:23:43;1.53;;;0.97;;
4486;SDS011;2256;48.740;9.106;2023-11-19T13:26:12;5.57;;;1.10;;
4486;SDS011;2256;48.740;9.106;2023-11-19T13:28:39;1.73;;;0.90;;
4486;SDS011;2256;48.740;9.106;2023-11-19T13:31:06;2.10;;;1.00;;
4486;SDS011;2256;48.740;9.106;2023-11-19T13:33:32;1.10;;;1.00;;
4486;SDS011;2256;48.740;9.106;2023-11-19T13:36:01;2.33;;;1.00;;
4486;SDS011;2256;48.740;9.106;2023-11-19T13:38:31;3.20;;;1.00;;
4486;SDS011;2256;48.740;9.106;2023-11-19T13:40:57;2.50;;;1.00;;
4486;SDS011;2256;48.740;9.106;2023-11-19T13:43:26;4.80;;;1.10;;
4486;SDS011;2256;48.740;9.106;2023-11-19T13:45:53;1.33;;;0.93;;
4486;SDS011;2256;48.740;9.106;2023-11-19T13:48:20;5.43;;;0.90;;
4486;SDS011;2256;48.740;9.106;2023-11-19T13:50:47;4.00;;;0.90;;
4486;SDS011;2256;48.740;9.106;2023-11-19T13:53:14;5.53;;;0.90;;
4486;SDS011;2256;48.740;9.106;2023-11-19T13:55:41;3.10;;;0.90;;
4486;SDS011;2256;48.740;9.106;2023-11-19T13:58:08;3.63;;;1.30;;
4486;SDS011;2256;48.740;9.106;2023-11-19T14:00:36;1.00;;;0.70;;
4486;SDS011;2256;48.740;9.106;2023-11-19T14:03:03;1.37;;;0.90;;
4486;SDS011;2256;48.740;9.106;2023-11-19T14:05:30;1.00;;;0.70;;
4486;SDS011;2256;48.740;9.106;2023-11-19T14:07:57;4.83;;;0.90;;
4486;SDS011;2256;48.740;9.106;2023-11-19T14:10:26;1.07;;;0.80;;
4486;SDS011;2256;48.740;9.106;2023-11-19T14:12:53;1.60;;;0.90;;
4486;SDS011;2256;48.740;9.106;2023-11-19T14:15:20;2.87;;;1.00;;
4486;SDS011;2256;48.740;9.106;2023-11-19T14:17:49;5.07;;;1.17;;
4486;SDS011;2256;48.740;9.106;2023-11-19T14:20:15;1.40;;;1.00;;
4486;SDS011;2256;48.740;9.106;2023-11-19T14:22:43;1.00;;;0.77;;
4486;SDS011;2256;48.740;9.106;2023-11-19T14:25:11;2.23;;;0.97;;
4486;SDS011;2256;48.740;9.106;2023-11-19T14:27:38;3.43;;;1.00;;
4486;SDS011;2256;48.740;9.106;2023-11-19T14:30:07;6.17;;;0.90;;
4486;SDS011;2256;48.740;9.106;2023-11-19T14:32:36;1.57;;;0.90;;
4486;SDS011;2256;48.740;9.106;2023-11-19T14:35:05;1.30;;;0.97;;
4486;SDS011;2256;48.740;9.106;2023-11-19T14:37:32;3.07;;;1.10;;
4486;SDS011;2256;48.740;9.106;2023-11-19T14:40:00;2.67;;;1.50;;
4486;SDS011;2256;48.740;9.106;2023-11-19T14:42:29;1.90;;;1.07;;
4486;SDS011;2256;48.740;9.106;2023-11-19T14:44:55;2.80;;;1.10;;
4486;SDS011;2256;48.740;9.106;2023-11-19T14:47:22;2.77;;;1.20;;
4486;SDS011;2256;48.740;9.106;2023-11-19T14:49:49;1.50;;;1.07;;
4486;SDS011;2256;48.740;9.106;2023-11-19T14:52:18;2.80;;;1.13;;
4486;SDS011;2256;48.740;9.106;2023-11-19T14:54:44;3.90;;;1.13;;
4486;SDS011;2256;48.740;9.106;2023-11-19T14:57:11;1.27;;;0.80;;
4486;SDS011;2256;48.740;9.106;2023-11-19T14:59:39;2.57;;;1.10;;
4486;SDS011;2256;48.740;9.106;2023-11-19T15:02:06;3.27;;;0.93;;
4486;SDS011;2256;48.740;9.106;2023-11-19T15:04:32;1.50;;;1.00;;
4486;SDS011;2256;48.740;9.106;2023-11-19T15:06:59;4.50;;;1.10;;
4486;SDS011;2256;48.740;9.106;2023-11-19T15:09:28;2.80;;;0.80;;
4486;SDS011;2256;48.740;9.106;2023-11-19T15:11:55;22.60;;;1.27;;
4486;SDS011;2256;48.740;9.106;2023-11-19T15:14:23;1.43;;;0.93;;
4486;SDS011;2256;48.740;9.106;2023-11-19T15:16:50;1.60;;;1.00;;
4486;SDS011;2256;48.740;9.106;2023-11-19T15:19:17;1.60;;;0.97;;
4486;SDS011;2256;48.740;9.106;2023-11-19T15:21:45;1.40;;;0.90;;
4486;SDS011;2256;48.740;9.106;2023-11-19T15:24:12;2.03;;;1.23;;
4486;SDS011;2256;48.740;9.106;2023-11-19T15:26:40;5.00;;;1.00;;